<?xml version="1.0" encoding="UTF-8" standalone="yes"?>
<gpx xmlns="http://www.topografix.com/GPX/1/1" xmlns:gpxtrx="http://www.garmin.com/xmlschemas/GpxExtensions/v3" xmlns:rcxx="http://www.routeconverter.de/xmlschemas/RouteCatalogExtensions/1.0" xmlns:xsi="http://www.w3.org/2001/XMLSchema-instance" xmlns:gpxtpx="http://www.garmin.com/xmlschemas/TrackPointExtension/v1" xmlns:gpxx="http://www.garmin.com/xmlschemas/WaypointExtension/v1" xmlns:nmea="http://trekbuddy.net/2009/01/gpx/nmea" creator="Generated by Christian Pesch's RouteConverter. See http://www.routeconverter.com" version="1.1">
    <trk>
        <name>Neue Positionsliste 1</name>
        <trkseg>
            <trkpt lon="11.241908967494965" lat="53.51185113625878">
                <ele>47.0</ele>
                <time>2012-05-19T02:31:15.290Z</time>
                <name>151 Hauptstraße 24, 19230 Gammelin, Deutschland</name>
            </trkpt>
            <trkpt lon="11.245342195034027" lat="53.511187613962434">
                <ele>51.0</ele>
                <time>2012-05-17T12:48:16.359Z</time>
                <name>2 Schmiedestraße 17, 19230 Gammelin, Deutschland</name>
            </trkpt>
            <trkpt lon="11.246908605098724" lat="53.51098345116583">
                <ele>51.0</ele>
                <time>2012-05-18T05:33:38.323Z</time>
                <name>3 Schmiedestraße 21, 19230 Gammelin, Deutschland</name>
            </trkpt>
            <trkpt lon="11.251865327358246" lat="53.51025611320958">
                <ele>54.0</ele>
                <time>2012-05-20T10:54:23.595Z</time>
                <name>4 Schmiedestraße 16, 19230 Gammelin, Deutschland</name>
            </trkpt>
            <trkpt lon="11.253925263881683" lat="53.5099753829404">
                <ele>55.0</ele>
                <time>2012-05-21T08:59:21.494Z</time>
                <name>5 Schmiedestraße 16, 19230 Gammelin, Deutschland</name>
            </trkpt>
            <trkpt lon="11.260212361812592" lat="53.50849513804183">
                <ele>51.0</ele>
                <time>2012-05-24T07:37:58.907Z</time>
                <name>6 LWL27, 19230 Gammelin, Deutschland</name>
            </trkpt>
            <trkpt lon="11.26600593328476" lat="53.50718073932459">
                <ele>48.0</ele>
                <time>2012-05-27T00:25:06.670Z</time>
                <name>7 LWL27, 19230 Gammelin, Deutschland</name>
            </trkpt>
            <trkpt lon="11.274267137050629" lat="53.50554725498991">
                <ele>41.0</ele>
                <time>2012-05-30T19:23:05.917Z</time>
                <name>8 Kirchweg 1, 19230 Bandenitz, Deutschland</name>
            </trkpt>
            <trkpt lon="11.280446946620941" lat="53.504411435811015">
                <ele>40.0</ele>
                <time>2012-06-02T14:58:28.387Z</time>
                <name>9 Kirchweg 1, 19230 Bandenitz, Deutschland</name>
            </trkpt>
            <trkpt lon="11.283837258815765" lat="53.50373503465055">
                <ele>36.0</ele>
                <time>2012-06-04T04:20:29.368Z</time>
                <name>10 Ringstraße 41, 19230 Bandenitz, Deutschland</name>
            </trkpt>
            <trkpt lon="11.28370851278305" lat="53.50534306502185">
                <ele>37.0</ele>
                <time>2012-06-05T08:33:52.947Z</time>
                <name>11 Mittlere Sude, Ringstraße 45, 19230 Bandenitz, Deutschland</name>
            </trkpt>
            <trkpt lon="11.283547580242157" lat="53.50613748608585">
                <ele>36.0</ele>
                <time>2012-06-05T22:35:35.745Z</time>
                <name>12 Mittlere Sude, Ringstraße 44, 19230 Bandenitz, Deutschland</name>
            </trkpt>
            <trkpt lon="11.283633410930634" lat="53.50640867059034">
                <ele>36.0</ele>
                <time>2012-06-06T03:25:53.060Z</time>
                <name>13 Ringstraße 46, 19230 Bandenitz, Deutschland</name>
            </trkpt>
            <trkpt lon="11.284352242946625" lat="53.50761143271507">
                <ele>38.0</ele>
                <time>2012-06-07T01:48:57.360Z</time>
                <name>14 Ringstraße 52, 19230 Bandenitz, Deutschland</name>
            </trkpt>
            <trkpt lon="11.285108625888824" lat="53.50879182920153">
                <ele>37.0</ele>
                <time>2012-06-07T23:58:06.298Z</time>
                <name>15 Feldstraße 1, 19230 Bandenitz, Deutschland</name>
            </trkpt>
            <trkpt lon="11.285827457904816" lat="53.509544713572765">
                <ele>36.0</ele>
                <time>2012-06-08T15:09:20.397Z</time>
                <name>16 Ringstraße 62, 19230 Bandenitz, Deutschland</name>
            </trkpt>
            <trkpt lon="11.286535561084747" lat="53.509334162510996">
                <ele>37.0</ele>
                <time>2012-06-08T23:25:31.198Z</time>
                <name>17 Ringstraße 63, 19230 Bandenitz, Deutschland</name>
            </trkpt>
            <trkpt lon="11.28695398569107" lat="53.50898324175025">
                <ele>38.0</ele>
                <time>2012-06-09T06:58:23.595Z</time>
                <name>18 Ringstraße 63, 19230 Bandenitz, Deutschland</name>
            </trkpt>
            <trkpt lon="11.287254393100739" lat="53.50890029641862">
                <ele>39.0</ele>
                <time>2012-06-09T10:25:59.212Z</time>
                <name>19 Ringstraße 63, 19230 Bandenitz, Deutschland</name>
            </trkpt>
            <trkpt lon="11.2882199883461" lat="53.509161892682435">
                <ele>41.0</ele>
                <time>2012-06-09T21:31:03.221Z</time>
                <name>20 Mittlere Sude, B321, 19230 Bandenitz, Deutschland</name>
            </trkpt>
            <trkpt lon="11.288874447345734" lat="53.509161892682435">
                <ele>42.0</ele>
                <time>2012-06-10T04:21:25.642Z</time>
                <name>21 Mittlere Sude, B321, 19230 Bandenitz, Deutschland</name>
            </trkpt>
            <trkpt lon="11.289249956607819" lat="53.50907894770044">
                <ele>42.0</ele>
                <time>2012-06-10T08:32:31.967Z</time>
                <name>22 Mittlere Sude, B321, 19230 Bandenitz, Deutschland</name>
            </trkpt>
            <trkpt lon="11.289346516132355" lat="53.50957661515755">
                <ele>42.0</ele>
                <time>2012-06-10T17:19:30.755Z</time>
                <name>23 B321, 19230 Bandenitz, Deutschland</name>
            </trkpt>
            <trkpt lon="11.289636194705963" lat="53.509959432301876">
                <ele>41.0</ele>
                <time>2012-06-11T00:41:15.814Z</time>
                <name>24 B321, 19230 Bandenitz, Deutschland</name>
            </trkpt>
            <trkpt lon="11.290773451328278" lat="53.51106320237611">
                <ele>43.0</ele>
                <time>2012-06-11T23:23:48.109Z</time>
                <name>25 Sandkrug 19, 19230 Bandenitz, Deutschland</name>
            </trkpt>
            <trkpt lon="11.293047964572906" lat="53.513525845853096">
                <ele>41.0</ele>
                <time>2012-06-14T00:40:50.693Z</time>
                <name>26 Sandkrug 14, 19230 Bandenitz, Deutschland</name>
            </trkpt>
            <trkpt lon="11.297908127307892" lat="53.5132642765255">
                <ele>39.0</ele>
                <time>2012-06-16T03:40:28.045Z</time>
                <name>27 L092, 19230 Bandenitz, Deutschland</name>
            </trkpt>
            <trkpt lon="11.299174129962921" lat="53.5131239215867">
                <ele>40.0</ele>
                <time>2012-06-16T17:07:50.585Z</time>
                <name>28 Lindenstraße 12, 19230 Bandenitz, Deutschland</name>
            </trkpt>
            <trkpt lon="11.299774944782257" lat="53.51613507100244">
                <ele>44.0</ele>
                <time>2012-06-18T22:17:33.521Z</time>
                <name>29 B321, 19230 Bandenitz, Deutschland</name>
            </trkpt>
            <trkpt lon="11.305375397205353" lat="53.51681127428759">
                <ele>47.0</ele>
                <time>2012-06-21T10:00:00.031Z</time>
                <name>30 B321, 19230 Bandenitz, Deutschland</name>
            </trkpt>
            <trkpt lon="11.312005817890167" lat="53.517538499739">
                <ele>43.0</ele>
                <time>2012-06-24T08:26:34.472Z</time>
                <name>31 B321, 19230 Bandenitz, Deutschland</name>
            </trkpt>
            <trkpt lon="11.32015973329544" lat="53.517053684158256">
                <ele>40.0</ele>
                <time>2012-06-27T22:03:49.432Z</time>
                <name>32 L092, 19230 Bandenitz, Deutschland</name>
            </trkpt>
            <trkpt lon="11.327627003192902" lat="53.51668368958806">
                <ele>42.0</ele>
                <time>2012-07-01T04:21:25.338Z</time>
                <name>33 Am Dorfteich 6, 19075 Holthusen, Deutschland</name>
            </trkpt>
            <trkpt lon="11.32966548204422" lat="53.51673472351397">
                <ele>42.0</ele>
                <time>2012-07-02T01:40:32.100Z</time>
                <name>34 LWL62, 19075 Holthusen, Deutschland</name>
            </trkpt>
            <trkpt lon="11.33316308259964" lat="53.51609679502207">
                <ele>47.0</ele>
                <time>2012-07-03T15:53:40.933Z</time>
                <name>35 An der Bahn 1, 19230 Alt Zachun, Deutschland</name>
            </trkpt>
            <trkpt lon="11.333592236042023" lat="53.516109553686036">
                <ele>46.0</ele>
                <time>2012-07-03T20:23:04.210Z</time>
                <name>36 An der Bahn 1, 19230 Alt Zachun, Deutschland</name>
            </trkpt>
            <trkpt lon="11.33464366197586" lat="53.51664541410328">
                <ele>43.0</ele>
                <time>2012-07-04T10:50:23.034Z</time>
                <name>37 An der Bahn 1, 19230 Alt Zachun, Deutschland</name>
            </trkpt>
            <trkpt lon="11.33663922548294" lat="53.51737264240143">
                <ele>42.0</ele>
                <time>2012-07-05T11:16:47.495Z</time>
                <name>38 Warsower Straße 39, 19075 Holthusen, Deutschland</name>
            </trkpt>
            <trkpt lon="11.3381627202034" lat="53.5182912287265">
                <ele>42.0</ele>
                <time>2012-07-06T09:55:24.955Z</time>
                <name>39 Warsower Straße 41, 19075 Holthusen, Deutschland</name>
            </trkpt>
            <trkpt lon="11.339021027088165" lat="53.51882706155238">
                <ele>42.0</ele>
                <time>2012-07-06T22:54:39.246Z</time>
                <name>40 Warsower Straße 41, 19075 Holthusen, Deutschland</name>
            </trkpt>
            <trkpt lon="11.3426473736763" lat="53.52020488627286">
                <ele>43.0</ele>
                <time>2012-07-08T19:50:40.283Z</time>
                <name>41 Warsower Straße 41, 19075 Holthusen, Deutschland</name>
            </trkpt>
            <trkpt lon="11.343934834003448" lat="53.520983082285476">
                <ele>44.0</ele>
                <time>2012-07-09T15:00:12.585Z</time>
                <name>42 Warsower Straße 41, 19075 Holthusen, Deutschland</name>
            </trkpt>
            <trkpt lon="11.34440690279007" lat="53.52093205347703">
                <ele>44.0</ele>
                <time>2012-07-09T20:00:57.762Z</time>
                <name>43 Warsower Straße 41, 19075 Holthusen, Deutschland</name>
            </trkpt>
            <trkpt lon="11.34790450334549" lat="53.52232256653304">
                <ele>46.0</ele>
                <time>2012-07-11T15:56:34.550Z</time>
                <name>44 Warsower Straße 41, 19075 Holthusen, Deutschland</name>
            </trkpt>
            <trkpt lon="11.352839767932892" lat="53.52339412343665">
                <ele>47.0</ele>
                <time>2012-07-13T22:49:08.561Z</time>
                <name>45 Alter Frachtweg 1, 19075 Holthusen, Deutschland</name>
            </trkpt>
            <trkpt lon="11.356680691242218" lat="53.523636495644034">
                <ele>47.0</ele>
                <time>2012-07-15T15:10:12.762Z</time>
                <name>46 Alter Frachtweg 1, 19075 Holthusen, Deutschland</name>
            </trkpt>
            <trkpt lon="11.360049545764923" lat="53.523508931497226">
                <ele>46.0</ele>
                <time>2012-07-17T02:26:10.193Z</time>
                <name>47 Alter Frachtweg 1, 19075 Holthusen, Deutschland</name>
            </trkpt>
            <trkpt lon="11.362302601337433" lat="53.523585470031406">
                <ele>48.0</ele>
                <time>2012-07-18T02:00:44.743Z</time>
                <name>48 Alter Frachtweg 1, 19075 Holthusen, Deutschland</name>
            </trkpt>
            <trkpt lon="11.370263397693634" lat="53.52233532332226">
                <ele>50.0</ele>
                <time>2012-07-21T16:01:14.669Z</time>
                <name>49 Neu-Sülstorfer Weg 33, 19077 Sülstorf, Deutschland</name>
            </trkpt>
            <trkpt lon="11.374275982379913" lat="53.52153163809835">
                <ele>46.0</ele>
                <time>2012-07-23T12:14:48.956Z</time>
                <name>50 Neu-Sülstorfer Weg 33, 19077 Sülstorf, Deutschland</name>
            </trkpt>
            <trkpt lon="11.379511654376984" lat="53.52137855346985">
                <ele>46.0</ele>
                <time>2012-07-25T19:00:48.220Z</time>
                <name>51 An der Bahn 1, 19077 Sülstorf, Deutschland</name>
            </trkpt>
            <trkpt lon="11.381314098834991" lat="53.512843210314536">
                <ele>46.0</ele>
                <time>2012-08-01T01:49:52.293Z</time>
                <name>52 Gartenweg 1, 19077 Sülstorf, Deutschland</name>
            </trkpt>
            <trkpt lon="11.381421387195587" lat="53.512103144410055">
                <ele>48.0</ele>
                <time>2012-08-01T14:51:14.343Z</time>
                <name>53 Birkenallee 2, 19077 Sülstorf, Deutschland</name>
            </trkpt>
            <trkpt lon="11.385197937488556" lat="53.51364706036036">
                <ele>47.0</ele>
                <time>2012-08-03T14:42:30.446Z</time>
                <name>54 Bahnhofsstraße, 19077 Sülstorf, Deutschland</name>
            </trkpt>
            <trkpt lon="11.388309299945831" lat="53.514450895157715">
                <ele>48.0</ele>
                <time>2012-08-05T02:08:36.459Z</time>
                <name>55 Bahnhofsstraße, 19077 Sülstorf, Deutschland</name>
            </trkpt>
            <trkpt lon="11.388030350208282" lat="53.51505057150387">
                <ele>47.0</ele>
                <time>2012-08-05T13:03:11.741Z</time>
                <name>56 Bahnhofstraße 9, 19077 Sülstorf, Deutschland</name>
            </trkpt>
            <trkpt lon="11.387408077716827" lat="53.515178161120915">
                <ele>47.0</ele>
                <time>2012-08-05T19:55:46.285Z</time>
                <name>57 Bahnhofstraße 9, 19077 Sülstorf, Deutschland</name>
            </trkpt>
            <trkpt lon="11.387172043323517" lat="53.5153695448261">
                <ele>46.0</ele>
                <time>2012-08-06T00:05:37.412Z</time>
                <name>58 Bahnhofstraße 9, 19077 Sülstorf, Deutschland</name>
            </trkpt>
            <trkpt lon="11.385906040668488" lat="53.517028167395424">
                <ele>45.0</ele>
                <time>2012-08-07T08:02:21.933Z</time>
                <name>59 Bahnhofstraße 9, 19077 Sülstorf, Deutschland</name>
            </trkpt>
            <trkpt lon="11.385283768177032" lat="53.51778090544939">
                <ele>45.0</ele>
                <time>2012-08-07T22:45:02.986Z</time>
                <name>60 Bahnhofstraße 9, 19077 Sülstorf, Deutschland</name>
            </trkpt>
            <trkpt lon="11.382515728473663" lat="53.52130201094817">
                <ele>45.0</ele>
                <time>2012-08-10T18:55:12.128Z</time>
                <name>61 An der Bahn 1, 19077 Sülstorf, Deutschland</name>
            </trkpt>
            <trkpt lon="11.380391418933868" lat="53.52361098284542">
                <ele>46.0</ele>
                <time>2012-08-12T17:05:04.508Z</time>
                <name>62 An der Bahn 1, 19077 Sülstorf, Deutschland</name>
            </trkpt>
            <trkpt lon="11.380026638507843" lat="53.52424879820137">
                <ele>47.0</ele>
                <time>2012-08-13T04:53:52.823Z</time>
                <name>63 An der Bahn 2, 19077 Sülstorf, Deutschland</name>
            </trkpt>
            <trkpt lon="11.380734741687775" lat="53.52798620315796">
                <ele>50.0</ele>
                <time>2012-08-15T22:50:11.815Z</time>
                <name>64 Waldstraße 12, 19077 Sülstorf, Deutschland</name>
            </trkpt>
            <trkpt lon="11.381485760211945" lat="53.530052476612966">
                <ele>54.0</ele>
                <time>2012-08-17T11:54:04.568Z</time>
                <name>65 Waldstraße 12, 19077 Sülstorf, Deutschland</name>
            </trkpt>
            <trkpt lon="11.382215321063995" lat="53.53220792605188">
                <ele>55.0</ele>
                <time>2012-08-19T02:27:01.111Z</time>
                <name>66 Waldstraße 10, 19077 Sülstorf, Deutschland</name>
            </trkpt>
            <trkpt lon="11.382987797260284" lat="53.53423573394241">
                <ele>56.0</ele>
                <time>2012-08-20T14:54:17.858Z</time>
                <name>67 Waldstraße 8, 19077 Sülstorf, Deutschland</name>
            </trkpt>
            <trkpt lon="11.383180916309357" lat="53.53627619731814">
                <ele>55.0</ele>
                <time>2012-08-22T02:44:03.253Z</time>
                <name>68 Waldstraße 8, 19077 Sülstorf, Deutschland</name>
            </trkpt>
            <trkpt lon="11.38333112001419" lat="53.53985952313494">
                <ele>52.0</ele>
                <time>2012-08-24T17:34:30.223Z</time>
                <name>69 Waldstraße 8, 19077 Sülstorf, Deutschland</name>
            </trkpt>
            <trkpt lon="11.384253799915314" lat="53.54044608850968">
                <ele>51.0</ele>
                <time>2012-08-25T07:40:02.549Z</time>
                <name>70 Waldstraße 8, 19077 Sülstorf, Deutschland</name>
            </trkpt>
            <trkpt lon="11.384253799915314" lat="53.541007143437255">
                <ele>50.0</ele>
                <time>2012-08-25T17:30:12.746Z</time>
                <name>71 Waldstraße 8, 19077 Sülstorf, Deutschland</name>
            </trkpt>
            <trkpt lon="11.384060680866241" lat="53.542371495983545">
                <ele>49.0</ele>
                <time>2012-08-26T17:30:27.465Z</time>
                <name>72 Buchholzer Straße 10B, 19075 Holthusen, Deutschland</name>
            </trkpt>
            <trkpt lon="11.384275257587433" lat="53.5435572993939">
                <ele>50.0</ele>
                <time>2012-08-27T14:25:01.281Z</time>
                <name>73 Buchholzer Straße 10B, 19075 Holthusen, Deutschland</name>
            </trkpt>
            <trkpt lon="11.383781731128693" lat="53.54459006884741">
                <ele>52.0</ele>
                <time>2012-08-28T09:14:31.935Z</time>
                <name>74 Bucholz, 19075 Holthusen, Deutschland</name>
            </trkpt>
            <trkpt lon="11.383760273456573" lat="53.54587780780515">
                <ele>53.0</ele>
                <time>2012-08-29T07:49:09.845Z</time>
                <name>75 Buchholzer Straße 10B, 19075 Holthusen, Deutschland</name>
            </trkpt>
            <trkpt lon="11.383974850177765" lat="53.54953681259414">
                <ele>51.0</ele>
                <time>2012-09-01T00:00:23.895Z</time>
                <name>76 Buchholzer Straße 10B, 19075 Holthusen, Deutschland</name>
            </trkpt>
            <trkpt lon="11.38433963060379" lat="53.5510028755669">
                <ele>51.0</ele>
                <time>2012-09-02T01:59:22.853Z</time>
                <name>77 Buchholzer Straße 11, 19075 Holthusen, Deutschland</name>
            </trkpt>
            <trkpt lon="11.384897530078888" lat="53.55243064459998">
                <ele>53.0</ele>
                <time>2012-09-03T03:41:22.150Z</time>
                <name>78 Buchholzer Straße 8A, 19075 Holthusen, Deutschland</name>
            </trkpt>
            <trkpt lon="11.384983360767365" lat="53.552889560130005">
                <ele>53.0</ele>
                <time>2012-09-03T11:47:05.071Z</time>
                <name>79 Buchholzer Straße 8, 19075 Holthusen, Deutschland</name>
            </trkpt>
            <trkpt lon="11.385305225849152" lat="53.55333572323489">
                <ele>52.0</ele>
                <time>2012-09-03T20:17:52.446Z</time>
                <name>80 Buchholzer Straße 8, 19075 Holthusen, Deutschland</name>
            </trkpt>
            <trkpt lon="11.386871635913849" lat="53.55528603814871">
                <ele>54.0</ele>
                <time>2012-09-05T10:11:57.273Z</time>
                <name>81 Buchholzer Straße 1, 19075 Holthusen, Deutschland</name>
            </trkpt>
            <trkpt lon="11.387558281421661" lat="53.55615281592184">
                <ele>54.0</ele>
                <time>2012-09-06T03:00:03.654Z</time>
                <name>82 Buchholzer Straße 1, 19075 Holthusen, Deutschland</name>
            </trkpt>
            <trkpt lon="11.393781006336212" lat="53.5637108753754">
                <ele>59.0</ele>
                <time>2012-09-12T06:34:12.010Z</time>
                <name>83 Neu Pampow 28, 19061 Schwerin, Deutschland</name>
            </trkpt>
            <trkpt lon="11.393223106861115" lat="53.564399063287965">
                <ele>55.0</ele>
                <time>2012-09-12T19:58:00.121Z</time>
                <name>84 Neu Pampow 28, 19061 Schwerin, Deutschland</name>
            </trkpt>
            <trkpt lon="11.395111382007599" lat="53.56666745527147">
                <ele>55.0</ele>
                <time>2012-09-14T16:21:02.189Z</time>
                <name>85 Eugen-Langen-Straße 14, 19061 Schwerin, Deutschland</name>
            </trkpt>
            <trkpt lon="11.395411789417267" lat="53.567584972527456">
                <ele>56.0</ele>
                <time>2012-09-15T08:44:19.936Z</time>
                <name>86 Rudolf-Diesel-Straße 12, 19061 Schwerin, Deutschland</name>
            </trkpt>
            <trkpt lon="11.396913826465607" lat="53.56936897687795">
                <ele>57.0</ele>
                <time>2012-09-16T19:43:25.390Z</time>
                <name>87 Rudolf-Diesel-Straße 17B, 19061 Schwerin, Deutschland</name>
            </trkpt>
            <trkpt lon="11.400003731250763" lat="53.56970028368572">
                <ele>60.0</ele>
                <time>2012-09-18T04:29:18.409Z</time>
                <name>88 Rudolf-Diesel-Straße 14, 19061 Schwerin, Deutschland</name>
            </trkpt>
            <trkpt lon="11.401419937610626" lat="53.570464827951334">
                <ele>61.0</ele>
                <time>2012-09-19T00:26:25.584Z</time>
                <name>89 Rudolf-Diesel-Straße 15, 19061 Schwerin, Deutschland</name>
            </trkpt>
            <trkpt lon="11.400389969348907" lat="53.5713058106787">
                <ele>59.0</ele>
                <time>2012-09-19T18:41:10.014Z</time>
                <name>90 Rudolf-Diesel-Straße 15, 19061 Schwerin, Deutschland</name>
            </trkpt>
            <trkpt lon="11.400175392627716" lat="53.57182823092069">
                <ele>58.0</ele>
                <time>2012-09-20T04:06:53.066Z</time>
                <name>91 Rudolf-Diesel-Straße 15, 19061 Schwerin, Deutschland</name>
            </trkpt>
            <trkpt lon="11.401377022266388" lat="53.57303232128676">
                <ele>57.0</ele>
                <time>2012-09-21T04:40:03.866Z</time>
                <name>92 Rudolf-Diesel-Straße 17, 19061 Schwerin, Deutschland</name>
            </trkpt>
            <trkpt lon="11.403050720691681" lat="53.57430645364885">
                <ele>56.0</ele>
                <time>2012-09-22T09:01:20.720Z</time>
                <name>93 Rudolf-Diesel-Straße 17, 19061 Schwerin, Deutschland</name>
            </trkpt>
            <trkpt lon="11.403994858264923" lat="53.575172841723614">
                <ele>54.0</ele>
                <time>2012-09-23T03:07:36.367Z</time>
                <name>94 Rudolf-Diesel-Straße 17, 19061 Schwerin, Deutschland</name>
            </trkpt>
            <trkpt lon="11.404509842395782" lat="53.57552958459428">
                <ele>53.0</ele>
                <time>2012-09-23T11:22:20.786Z</time>
                <name>95 Rudolf-Diesel-Straße 17, 19061 Schwerin, Deutschland</name>
            </trkpt>
            <trkpt lon="11.403715908527374" lat="53.57580988045246">
                <ele>52.0</ele>
                <time>2012-09-23T21:00:15.989Z</time>
                <name>96 Rudolf-Diesel-Straße 17, 19061 Schwerin, Deutschland</name>
            </trkpt>
            <trkpt lon="11.404037773609161" lat="53.57625580185165">
                <ele>49.0</ele>
                <time>2012-09-24T05:30:46.858Z</time>
                <name>97 Rudolf-Diesel-Straße 17, 19061 Schwerin, Deutschland</name>
            </trkpt>
            <trkpt lon="11.404252350330353" lat="53.57698200663507">
                <ele>46.0</ele>
                <time>2012-09-24T18:26:23.828Z</time>
                <name>98 Rudolf-Diesel-Straße 17, 19061 Schwerin, Deutschland</name>
            </trkpt>
            <trkpt lon="11.404145061969757" lat="53.57758079768731">
                <ele>45.0</ele>
                <time>2012-09-25T04:59:50.151Z</time>
                <name>99 Carl-von-Linde-Straße 4, 19061 Schwerin, Deutschland</name>
            </trkpt>
            <trkpt lon="11.403844654560089" lat="53.57823054008587">
                <ele>45.0</ele>
                <time>2012-09-25T16:48:42.085Z</time>
                <name>100 Pampower Straße 50, 19061 Schwerin, Deutschland</name>
            </trkpt>
            <trkpt lon="11.404166519641876" lat="53.578383419198985">
                <ele>45.0</ele>
                <time>2012-09-25T21:06:30.062Z</time>
                <name>101 Pampower Straße 50, 19061 Schwerin, Deutschland</name>
            </trkpt>
            <trkpt lon="11.405153572559357" lat="53.57862547666414">
                <ele>46.0</ele>
                <time>2012-09-26T08:14:49.065Z</time>
                <name>102 Pampower Straße 50, 19061 Schwerin, Deutschland</name>
            </trkpt>
            <trkpt lon="11.40557199716568" lat="53.57888664237482">
                <ele>47.0</ele>
                <time>2012-09-26T14:34:24.049Z</time>
                <name>103 Vossens Tannen 51, 19061 Schwerin, Deutschland</name>
            </trkpt>
            <trkpt lon="11.405968964099884" lat="53.57949177623566">
                <ele>47.0</ele>
                <time>2012-09-27T01:57:43.738Z</time>
                <name>104 Vossens Tannen 51, 19061 Schwerin, Deutschland</name>
            </trkpt>
            <trkpt lon="11.406516134738922" lat="53.579587322895556">
                <ele>47.0</ele>
                <time>2012-09-27T07:54:41.991Z</time>
                <name>105 Vossens Tannen 51, 19061 Schwerin, Deutschland</name>
            </trkpt>
            <trkpt lon="11.407653391361237" lat="53.57957458335339">
                <ele>48.0</ele>
                <time>2012-09-27T19:46:45.081Z</time>
                <name>106 Vossens Tannen 51, 19061 Schwerin, Deutschland</name>
            </trkpt>
            <trkpt lon="11.408393681049347" lat="53.579759306339156">
                <ele>48.0</ele>
                <time>2012-09-28T04:09:15.687Z</time>
                <name>107 Vossens Tannen 51, 19061 Schwerin, Deutschland</name>
            </trkpt>
            <trkpt lon="11.408704817295074" lat="53.580071422653326">
                <ele>46.0</ele>
                <time>2012-09-28T10:31:00.132Z</time>
                <name>108 Vossens Tannen 51, 19061 Schwerin, Deutschland</name>
            </trkpt>
            <trkpt lon="11.409241259098053" lat="53.580810301069114">
                <ele>50.0</ele>
                <time>2012-09-29T00:37:40.202Z</time>
                <name>109 Vossens Tannen 51, 19061 Schwerin, Deutschland</name>
            </trkpt>
            <trkpt lon="11.40931636095047" lat="53.58106508373521">
                <ele>53.0</ele>
                <time>2012-09-29T05:09:46.049Z</time>
                <name>110 Vossens Tannen 51, 19061 Schwerin, Deutschland</name>
            </trkpt>
            <trkpt lon="11.409423649311066" lat="53.581160626839065">
                <ele>54.0</ele>
                <time>2012-09-29T07:10:38.616Z</time>
                <name>111 Vossens Tannen 51, 19061 Schwerin, Deutschland</name>
            </trkpt>
            <trkpt lon="11.409788429737091" lat="53.58105234463838">
                <ele>55.0</ele>
                <time>2012-09-29T11:25:49.225Z</time>
                <name>112 Vossens Tannen 51, 19061 Schwerin, Deutschland</name>
            </trkpt>
            <trkpt lon="11.410013735294342" lat="53.58139629890532">
                <ele>58.0</ele>
                <time>2012-09-29T17:54:08.579Z</time>
                <name>113 Vossens Tannen 51, 19061 Schwerin, Deutschland</name>
            </trkpt>
            <trkpt lon="11.41107589006424" lat="53.58326888970518">
                <ele>61.0</ele>
                <time>2012-10-01T04:33:06.216Z</time>
                <name>114 Vossens Tannen 57, 19061 Schwerin, Deutschland</name>
            </trkpt>
            <trkpt lon="11.411955654621124" lat="53.58464461783752">
                <ele>58.0</ele>
                <time>2012-10-02T06:21:28.014Z</time>
                <name>115 Vossens Tannen 67, 19061 Schwerin, Deutschland</name>
            </trkpt>
            <trkpt lon="11.412387490272522" lat="53.58536351350962">
                <ele>58.0</ele>
                <time>2012-10-02T19:44:31.699Z</time>
                <name>116 Vossens Tannen 67, 19061 Schwerin, Deutschland</name>
            </trkpt>
            <trkpt lon="11.413079500198364" lat="53.58656084970051">
                <ele>57.0</ele>
                <time>2012-10-03T17:56:24.214Z</time>
                <name>117 Am Wald 6A, 19061 Schwerin, Deutschland</name>
            </trkpt>
            <trkpt lon="11.413279324769974" lat="53.58690316697718">
                <ele>58.0</ele>
                <time>2012-10-04T00:17:35.367Z</time>
                <name>118 Am Wald 6, 19061 Schwerin, Deutschland</name>
            </trkpt>
            <trkpt lon="11.413468420505524" lat="53.587281702969925">
                <ele>58.0</ele>
                <time>2012-10-04T07:12:59.336Z</time>
                <name>119 Am Wald 5, 19061 Schwerin, Deutschland</name>
            </trkpt>
            <trkpt lon="11.413554921746254" lat="53.58744051990044">
                <ele>59.0</ele>
                <time>2012-10-04T10:08:36.124Z</time>
                <name>120 Am Wald 9, 19061 Schwerin, Deutschland</name>
            </trkpt>
            <trkpt lon="11.414220780134201" lat="53.58873173113852">
                <ele>58.0</ele>
                <time>2012-10-05T09:49:19.543Z</time>
                <name>121 Am Wald 2, 19061 Schwerin, Deutschland</name>
            </trkpt>
            <trkpt lon="11.41300842165947" lat="53.58880337548972">
                <ele>52.0</ele>
                <time>2012-10-05T22:31:50.010Z</time>
                <name>122 Am Wald 31, 19061 Schwerin, Deutschland</name>
            </trkpt>
            <trkpt lon="11.412048190832138" lat="53.58883362529043">
                <ele>51.0</ele>
                <time>2012-10-06T08:33:39.046Z</time>
                <name>123 Am Wald 31, 19061 Schwerin, Deutschland</name>
            </trkpt>
            <trkpt lon="11.411841660737991" lat="53.58887661181204">
                <ele>50.0</ele>
                <time>2012-10-06T10:50:35.470Z</time>
                <name>124 Am Wald 31, 19061 Schwerin, Deutschland</name>
            </trkpt>
            <trkpt lon="11.411739736795425" lat="53.588924374562595">
                <ele>50.0</ele>
                <time>2012-10-06T12:11:47.448Z</time>
                <name>125 Am Wald 31, 19061 Schwerin, Deutschland</name>
            </trkpt>
            <trkpt lon="11.411683410406113" lat="53.5890198999017">
                <ele>49.0</ele>
                <time>2012-10-06T13:58:16.694Z</time>
                <name>126 Am Wald 31, 19061 Schwerin, Deutschland</name>
            </trkpt>
            <trkpt lon="11.41160562634468" lat="53.58970289978502">
                <ele>47.0</ele>
                <time>2012-10-07T01:58:22.389Z</time>
                <name>127 Am Wald 37, 19061 Schwerin, Deutschland</name>
            </trkpt>
            <trkpt lon="11.411541253328323" lat="53.59030151065189">
                <ele>46.0</ele>
                <time>2012-10-07T12:29:20.386Z</time>
                <name>128 Alter Holzweg 56, 19061 Schwerin, Deutschland</name>
            </trkpt>
            <trkpt lon="11.411525160074234" lat="53.59041295322806">
                <ele>46.0</ele>
                <time>2012-10-07T14:26:59.859Z</time>
                <name>129 Alter Holzweg 4, 19061 Schwerin, Deutschland</name>
            </trkpt>
            <trkpt lon="11.41147956252098" lat="53.590475042535864">
                <ele>45.0</ele>
                <time>2012-10-07T15:38:16.292Z</time>
                <name>130 Alter Holzweg 4, 19061 Schwerin, Deutschland</name>
            </trkpt>
            <trkpt lon="11.411388367414474" lat="53.59053076363185">
                <ele>45.0</ele>
                <time>2012-10-07T17:00:04.844Z</time>
                <name>131 Alter Holzweg, 19061 Schwerin, Deutschland</name>
            </trkpt>
            <trkpt lon="11.410902887582779" lat="53.59064698168134">
                <ele>45.0</ele>
                <time>2012-10-07T22:27:35.100Z</time>
                <name>132 Alter Holzweg, 19061 Schwerin, Deutschland</name>
            </trkpt>
            <trkpt lon="11.410548835992813" lat="53.59075205525918">
                <ele>44.0</ele>
                <time>2012-10-08T02:35:11.977Z</time>
                <name>133 Alter Holzweg, 19061 Schwerin, Deutschland</name>
            </trkpt>
            <trkpt lon="11.410312801599503" lat="53.590841208393066">
                <ele>44.0</ele>
                <time>2012-10-08T05:30:10.308Z</time>
                <name>134 Alter Holzweg, 19061 Schwerin, Deutschland</name>
            </trkpt>
            <trkpt lon="11.41001507639885" lat="53.59098608183443">
                <ele>43.0</ele>
                <time>2012-10-08T09:30:52.878Z</time>
                <name>135 Alter Holzweg, 19061 Schwerin, Deutschland</name>
            </trkpt>
            <trkpt lon="11.409800499677658" lat="53.59111503469958">
                <ele>43.0</ele>
                <time>2012-10-08T12:41:45.370Z</time>
                <name>136 Alter Holzweg, 19061 Schwerin, Deutschland</name>
            </trkpt>
            <trkpt lon="11.40951618552208" lat="53.591320403265">
                <ele>43.0</ele>
                <time>2012-10-08T17:21:37.617Z</time>
                <name>137 Alter Holzweg, 19061 Schwerin, Deutschland</name>
            </trkpt>
            <trkpt lon="11.409497410058975" lat="53.59143821113887">
                <ele>43.0</ele>
                <time>2012-10-08T19:26:06.288Z</time>
                <name>138 Am Krebsbach 21, 19061 Schwerin, Deutschland</name>
            </trkpt>
            <trkpt lon="11.409191638231277" lat="53.59142865916133">
                <ele>42.0</ele>
                <time>2012-10-08T22:37:43.691Z</time>
                <name>139 Am Krebsbach 21, 19061 Schwerin, Deutschland</name>
            </trkpt>
            <trkpt lon="11.408856362104416" lat="53.59145413109661">
                <ele>42.0</ele>
                <time>2012-10-09T02:09:15.355Z</time>
                <name>140 Am Krebsbach 21, 19061 Schwerin, Deutschland</name>
            </trkpt>
            <trkpt lon="11.408510357141495" lat="53.59152736282506">
                <ele>42.0</ele>
                <time>2012-10-09T05:59:05.274Z</time>
                <name>141 Am Krebsbach 21, 19061 Schwerin, Deutschland</name>
            </trkpt>
            <trkpt lon="11.407743245363235" lat="53.59171680953372">
                <ele>42.0</ele>
                <time>2012-10-09T14:38:52.904Z</time>
                <name>142 Am Krebsbach 21, 19061 Schwerin, Deutschland</name>
            </trkpt>
            <trkpt lon="11.407579630613327" lat="53.59173432137145">
                <ele>42.0</ele>
                <time>2012-10-09T16:22:55.102Z</time>
                <name>143 Hagenower Chaussee, 19061 Schwerin, Deutschland</name>
            </trkpt>
            <trkpt lon="11.407437473535538" lat="53.59172158549018">
                <ele>42.0</ele>
                <time>2012-10-09T17:52:53.151Z</time>
                <name>144 Hagenower Chaussee, 19061 Schwerin, Deutschland</name>
            </trkpt>
            <trkpt lon="11.40736237168312" lat="53.59169611371612">
                <ele>42.0</ele>
                <time>2012-10-09T18:46:59.204Z</time>
                <name>145 Hagenower Chaussee, 19061 Schwerin, Deutschland</name>
            </trkpt>
            <trkpt lon="11.406603306531906" lat="53.591247171177876">
                <ele>44.0</ele>
                <time>2012-10-10T05:56:49.255Z</time>
                <name>146 Hagenower Chaussee, 19061 Schwerin, Deutschland</name>
            </trkpt>
            <trkpt lon="11.405570656061172" lat="53.59054827596113">
                <ele>46.0</ele>
                <time>2012-10-10T22:15:39.836Z</time>
                <name>147 Hagenower Chaussee 19, 19061 Schwerin, Deutschland</name>
            </trkpt>
            <trkpt lon="11.404819637537003" lat="53.59006748028593">
                <ele>46.0</ele>
                <time>2012-10-11T09:46:05.884Z</time>
                <name>148 Hagenower Chaussee 19, 19061 Schwerin, Deutschland</name>
            </trkpt>
            <trkpt lon="11.404696255922318" lat="53.59014071441754">
                <ele>46.0</ele>
                <time>2012-10-11T11:35:10.274Z</time>
                <name>149 Hagenower Chaussee 19, 19061 Schwerin, Deutschland</name>
            </trkpt>
            <trkpt lon="11.404610425233841" lat="53.590178923479286">
                <ele>46.0</ele>
                <time>2012-10-11T12:42:15.545Z</time>
                <name>150 Hagenower Chaussee 19, 19061 Schwerin, Deutschland</name>
            </trkpt>
            <trkpt lon="11.404470950365067" lat="53.590083400760115">
                <ele>46.0</ele>
                <time>2012-10-11T14:55:21.553Z</time>
                <name>151 Hagenower Chaussee 23, 19061 Schwerin, Deutschland</name>
            </trkpt>
            <trkpt lon="11.40415444970131" lat="53.59022668475788">
                <ele>46.0</ele>
                <time>2012-10-11T19:04:15.651Z</time>
                <name>152 Pampower Straße 3C, 19061 Schwerin, Deutschland</name>
            </trkpt>
            <trkpt lon="11.403505355119705" lat="53.59026807782236">
                <ele>44.0</ele>
                <time>2012-10-12T01:52:49.125Z</time>
                <name>153 Pampower Straße 3, 19061 Schwerin, Deutschland</name>
            </trkpt>
            <trkpt lon="11.403301507234573" lat="53.59032539122928">
                <ele>44.0</ele>
                <time>2012-10-12T04:13:55.388Z</time>
                <name>154 Pampower Straße, 19061 Schwerin, Deutschland</name>
            </trkpt>
            <trkpt lon="11.402529031038284" lat="53.59055146002086">
                <ele>43.0</ele>
                <time>2012-10-12T13:12:41.454Z</time>
                <name>155 Benno-Voelkner-Straße, 19061 Schwerin, Deutschland</name>
            </trkpt>
            <trkpt lon="11.402925997972488" lat="53.591366571255335">
                <ele>44.0</ele>
                <time>2012-10-13T04:05:22.331Z</time>
                <name>156 Karl-Kleinschmidt-Straße 24, 19061 Schwerin, Deutschland</name>
            </trkpt>
        </trkseg>
    </trk>
</gpx>
